createdAt,value
2018-07-02T00:00:15.739Z,1036.11
2018-07-02T00:01:15.731Z,1036.13
2018-07-02T00:02:15.723Z,1036.09
2018-07-02T00:03:15.716Z,1036.12
2018-07-02T00:04:15.711Z,1036.14
2018-07-02T00:05:15.705Z,1036.13
2018-07-02T00:06:15.695Z,1036.09
2018-07-02T00:07:15.688Z,1036.08
2018-07-02T00:08:15.681Z,1036.08
2018-07-02T00:09:15.675Z,1036.1
2018-07-02T00:10:15.668Z,1036.1
2018-07-02T00:11:15.662Z,1036.09
2018-07-02T00:12:15.655Z,1036.12
2018-07-02T00:13:15.649Z,1036.15
2018-07-02T00:14:15.646Z,1036.12
2018-07-02T00:15:15.633Z,1036.15
2018-07-02T00:16:15.626Z,1036.11
2018-07-02T00:17:15.619Z,1036.1
2018-07-02T00:18:15.612Z,1036.13
2018-07-02T00:19:15.605Z,1036.11
2018-07-02T00:20:15.597Z,1036.11
2018-07-02T00:21:15.590Z,1036.1
2018-07-02T00:22:15.593Z,1036.09
2018-07-02T00:23:15.580Z,1036.11
2018-07-02T00:24:15.569Z,1036.12
2018-07-02T00:25:15.562Z,1036.11
2018-07-02T00:26:15.556Z,1036.09
2018-07-02T00:27:15.549Z,1036.05
2018-07-02T00:28:15.548Z,1036.04
2018-07-02T00:29:15.533Z,1036.06
2018-07-02T00:30:15.541Z,1036.08
2018-07-02T00:31:15.518Z,1036.12
2018-07-02T00:32:15.512Z,1036.13
2018-07-02T00:33:15.505Z,1036.1
2018-07-02T00:34:15.501Z,1036.08
2018-07-02T00:35:15.490Z,1036.1
2018-07-02T00:36:15.483Z,1036.06
2018-07-02T00:37:15.476Z,1036.07
2018-07-02T00:38:15.469Z,1036.04
2018-07-02T00:39:15.461Z,1036.01
2018-07-02T00:40:15.454Z,1036.02
2018-07-02T00:41:15.448Z,1036.02
2018-07-02T00:42:15.440Z,1036.07
2018-07-02T00:43:15.435Z,1036.06
2018-07-02T00:44:15.429Z,1036.06
2018-07-02T00:45:15.419Z,1036.08
2018-07-02T00:46:15.410Z,1036.1
2018-07-02T00:47:15.405Z,1036.09
2018-07-02T00:48:15.397Z,1036.05
2018-07-02T00:49:15.389Z,1036.07
2018-07-02T00:50:15.385Z,1036.1
2018-07-02T00:51:15.374Z,1036.08
2018-07-02T00:52:15.369Z,1036.11
2018-07-02T00:53:15.370Z,1036.14
2018-07-02T00:54:15.352Z,1036.13
2018-07-02T00:55:15.356Z,1036.13
2018-07-02T00:56:15.338Z,1036.07
2018-07-02T00:57:15.331Z,1036.07
2018-07-02T00:58:15.323Z,1036.06
2018-07-02T00:59:15.322Z,1036.04
2018-07-02T01:00:15.309Z,1036.05
2018-07-02T01:01:15.301Z,1036
2018-07-02T01:02:15.294Z,1036.03
2018-07-02T01:03:15.287Z,1036.03
2018-07-02T01:04:15.280Z,1036.03
2018-07-02T01:05:15.275Z,1035.98
2018-07-02T01:06:15.265Z,1035.99
2018-07-02T01:07:15.260Z,1036.01
2018-07-02T01:08:15.251Z,1036.03
2018-07-02T01:09:15.246Z,1036
2018-07-02T01:10:15.236Z,1036.01
2018-07-02T01:11:15.229Z,1036.03
2018-07-02T01:12:15.220Z,1036.05
2018-07-02T01:13:15.213Z,1036.05
2018-07-02T01:14:15.205Z,1036.07
2018-07-02T01:15:15.198Z,1036.03
2018-07-02T01:16:15.191Z,1036.09
2018-07-02T01:17:15.184Z,1036.06
2018-07-02T01:18:15.177Z,1036.05
2018-07-02T01:19:15.169Z,1036.03
2018-07-02T01:20:15.161Z,1036.04
2018-07-02T01:21:15.156Z,1036.01
2018-07-02T01:22:15.147Z,1035.98
2018-07-02T01:23:15.138Z,1036
2018-07-02T01:24:15.132Z,1035.99
2018-07-02T01:25:15.124Z,1035.97
2018-07-02T01:26:15.116Z,1035.95
2018-07-02T01:27:15.109Z,1035.99
2018-07-02T01:28:15.102Z,1035.95
2018-07-02T01:29:15.094Z,1035.91
2018-07-02T01:30:15.093Z,1035.9
2018-07-02T01:31:15.079Z,1035.91
2018-07-02T01:32:15.072Z,1035.93
2018-07-02T01:33:15.064Z,1035.92
2018-07-02T01:34:15.058Z,1035.93
2018-07-02T01:35:15.050Z,1035.96
2018-07-02T01:36:15.041Z,1035.97
2018-07-02T01:37:15.034Z,1035.97
2018-07-02T01:38:15.030Z,1035.93
2018-07-02T01:39:15.019Z,1035.95
2018-07-02T01:40:15.013Z,1035.97
2018-07-02T01:41:15.005Z,1035.99
2018-07-02T01:42:14.996Z,1035.97
2018-07-02T01:43:14.989Z,1035.99
2018-07-02T01:44:14.982Z,1036.04
2018-07-02T01:45:14.974Z,1036.02
2018-07-02T01:46:14.966Z,1036
2018-07-02T01:47:14.959Z,1036.04
2018-07-02T01:48:14.950Z,1036.03
2018-07-02T01:49:14.949Z,1036.03
2018-07-02T01:50:14.938Z,1036
2018-07-02T01:51:14.931Z,1036.03
2018-07-02T01:52:14.921Z,1036.07
2018-07-02T01:53:14.913Z,1036.09
2018-07-02T01:54:14.905Z,1036.11
2018-07-02T01:55:14.896Z,1036.15
2018-07-02T01:56:14.889Z,1036.15
2018-07-02T01:57:14.883Z,1036.17
2018-07-02T01:58:14.874Z,1036.19
2018-07-02T01:59:14.866Z,1036.19
2018-07-02T02:00:14.861Z,1036.19
2018-07-02T02:01:14.851Z,1036.19
2018-07-02T02:02:14.844Z,1036.2
2018-07-02T02:03:14.835Z,1036.23
2018-07-02T02:04:14.828Z,1036.29
2018-07-02T02:05:14.820Z,1036.27
2018-07-02T02:06:14.813Z,1036.3
2018-07-02T02:07:14.803Z,1036.3
2018-07-02T02:08:14.797Z,1036.37
2018-07-02T02:09:14.789Z,1036.33
2018-07-02T02:10:14.780Z,1036.36
2018-07-02T02:11:14.773Z,1036.36
2018-07-02T02:12:14.765Z,1036.35
2018-07-02T02:13:14.757Z,1036.35
2018-07-02T02:14:14.759Z,1036.35
2018-07-02T02:15:14.742Z,1036.35
2018-07-02T02:16:14.734Z,1036.32
2018-07-02T02:17:14.725Z,1036.34
2018-07-02T02:18:14.717Z,1036.35
2018-07-02T02:19:14.710Z,1036.34
2018-07-02T02:20:14.702Z,1036.34
2018-07-02T02:21:14.693Z,1036.33
2018-07-02T02:22:14.685Z,1036.33
2018-07-02T02:23:14.678Z,1036.28
2018-07-02T02:24:14.670Z,1036.28
2018-07-02T02:25:14.662Z,1036.28
2018-07-02T02:26:14.655Z,1036.28
2018-07-02T02:27:14.646Z,1036.24
2018-07-02T02:28:14.643Z,1036.26
2018-07-02T02:29:14.629Z,1036.24
2018-07-02T02:30:14.623Z,1036.25
2018-07-02T02:31:14.614Z,1036.21
2018-07-02T02:32:14.611Z,1036.22
2018-07-02T02:33:14.597Z,1036.23
2018-07-02T02:34:14.591Z,1036.25
2018-07-02T02:35:14.583Z,1036.19
2018-07-02T02:36:14.578Z,1036.16
2018-07-02T02:37:14.565Z,1036.18
2018-07-02T02:38:14.566Z,1036.17
2018-07-02T02:39:14.550Z,1036.17
2018-07-02T02:40:14.541Z,1036.14
2018-07-02T02:41:14.533Z,1036.1
2018-07-02T02:42:14.526Z,1036.08
2018-07-02T02:43:14.521Z,1036.1
2018-07-02T02:44:14.509Z,1036.09
2018-07-02T02:45:14.501Z,1036.13
2018-07-02T02:46:14.493Z,1036.15
2018-07-02T02:47:14.486Z,1036.19
2018-07-02T02:48:14.477Z,1036.18
2018-07-02T02:49:14.469Z,1036.21
2018-07-02T02:50:14.460Z,1036.2
2018-07-02T02:51:14.452Z,1036.17
2018-07-02T02:52:14.444Z,1036.2
2018-07-02T02:53:14.436Z,1036.18
2018-07-02T02:54:14.427Z,1036.19
2018-07-02T02:55:14.420Z,1036.21
2018-07-02T02:56:14.418Z,1036.22
2018-07-02T02:57:14.403Z,1036.2
2018-07-02T02:58:14.394Z,1036.21
2018-07-02T02:59:14.391Z,1036.24
2018-07-02T03:00:14.391Z,1036.23
2018-07-02T03:01:14.370Z,1036.22
2018-07-02T03:02:14.363Z,1036.22
2018-07-02T03:03:14.354Z,1036.23
2018-07-02T03:04:14.346Z,1036.22
2018-07-02T03:05:14.337Z,1036.2
2018-07-02T03:06:14.329Z,1036.21
2018-07-02T03:07:14.321Z,1036.22
2018-07-02T03:08:14.314Z,1036.24
2018-07-02T03:09:14.305Z,1036.24
2018-07-02T03:10:14.298Z,1036.26
2018-07-02T03:11:14.288Z,1036.3
2018-07-02T03:12:14.280Z,1036.33
2018-07-02T03:13:14.271Z,1036.31
2018-07-02T03:14:14.265Z,1036.3
2018-07-02T03:15:14.256Z,1036.28
2018-07-02T03:16:14.248Z,1036.25
2018-07-02T03:17:14.241Z,1036.2
2018-07-02T03:18:14.231Z,1036.18
2018-07-02T03:19:14.231Z,1036.17
2018-07-02T03:20:14.243Z,1036.19
2018-07-02T03:21:14.208Z,1036.18
2018-07-02T03:22:14.200Z,1036.16
2018-07-02T03:23:14.191Z,1036.13
2018-07-02T03:24:14.184Z,1036.08
2018-07-02T03:25:14.178Z,1035.99
2018-07-02T03:26:14.166Z,1035.87
2018-07-02T03:27:14.158Z,1035.68
2018-07-02T03:28:14.150Z,1035.45
2018-07-02T03:29:14.141Z,1035.23
2018-07-02T03:30:14.134Z,1035.01
2018-07-02T03:31:14.126Z,1034.74
2018-07-02T03:32:14.119Z,1034.53
2018-07-02T03:33:14.111Z,1034.34
2018-07-02T03:34:14.112Z,1034.21
2018-07-02T03:35:14.096Z,1033.93
2018-07-02T03:36:14.092Z,1033.79
2018-07-02T03:37:14.082Z,1033.64
2018-07-02T03:38:14.074Z,1033.41
2018-07-02T03:39:14.068Z,1033.23
2018-07-02T03:40:14.066Z,1033.06
2018-07-02T03:41:14.057Z,1032.89
2018-07-02T03:42:14.049Z,1032.74
2018-07-02T03:43:14.044Z,1032.62
2018-07-02T03:44:14.039Z,1032.52
2018-07-02T03:45:14.031Z,1032.34
2018-07-02T03:46:14.029Z,1032.26
2018-07-02T03:47:14.022Z,1032.14
2018-07-02T03:48:14.017Z,1032
2018-07-02T03:49:14.011Z,1031.95
2018-07-02T03:50:14.010Z,1031.88
2018-07-02T03:51:14.005Z,1031.79
2018-07-02T03:52:13.999Z,1031.73
2018-07-02T03:53:13.995Z,1031.76
2018-07-02T03:54:13.992Z,1031.73
2018-07-02T03:55:13.988Z,1031.73
2018-07-02T03:56:13.984Z,1031.72
2018-07-02T03:57:13.982Z,1031.65
2018-07-02T03:58:13.979Z,1031.57
2018-07-02T03:59:13.976Z,1031.54
2018-07-02T04:00:13.972Z,1031.44
2018-07-02T04:01:13.997Z,1031.46
2018-07-02T04:02:13.970Z,1031.4
2018-07-02T04:03:13.966Z,1031.39
2018-07-02T04:04:13.963Z,1031.28
2018-07-02T04:05:13.961Z,1031.25
2018-07-02T04:06:13.959Z,1031.16
2018-07-02T04:07:13.957Z,1031.1
2018-07-02T04:08:13.957Z,1031.03
2018-07-02T04:09:13.954Z,1030.91
2018-07-02T04:10:13.954Z,1030.82
2018-07-02T04:11:13.954Z,1030.71
2018-07-02T04:12:14.037Z,1030.65
2018-07-02T04:13:13.949Z,1030.64
2018-07-02T04:14:13.948Z,1030.56
2018-07-02T04:15:13.949Z,1030.51
2018-07-02T04:16:13.947Z,1030.41
2018-07-02T04:17:13.947Z,1030.36
2018-07-02T04:18:13.945Z,1030.3
2018-07-02T04:19:13.948Z,1030.21
2018-07-02T04:20:13.946Z,1030.15
2018-07-02T04:21:13.947Z,1030.03
2018-07-02T04:22:13.948Z,1029.94
2018-07-02T04:23:13.951Z,1029.75
2018-07-02T04:24:13.946Z,1029.65
2018-07-02T04:25:13.947Z,1029.51
2018-07-02T04:26:13.948Z,1029.43
2018-07-02T04:27:13.949Z,1029.42
2018-07-02T04:28:13.952Z,1029.36
2018-07-02T04:29:13.951Z,1029.37
2018-07-02T04:30:13.953Z,1029.3
2018-07-02T04:31:13.955Z,1029.23
2018-07-02T04:32:13.958Z,1029.15
2018-07-02T04:33:13.960Z,1029.11
2018-07-02T04:34:14.025Z,1029
2018-07-02T04:35:13.965Z,1028.91
2018-07-02T04:36:13.967Z,1028.84
2018-07-02T04:37:13.970Z,1028.83
2018-07-02T04:38:13.974Z,1028.79
2018-07-02T04:39:13.977Z,1028.75
2018-07-02T04:40:13.980Z,1028.66
2018-07-02T04:41:13.983Z,1028.66
2018-07-02T04:42:13.987Z,1028.6
2018-07-02T04:43:13.992Z,1028.55
2018-07-02T04:44:13.995Z,1028.5
2018-07-02T04:45:14.046Z,1028.44
2018-07-02T04:46:14.005Z,1028.43
2018-07-02T04:47:14.012Z,1028.43
2018-07-02T04:48:14.015Z,1028.4
2018-07-02T04:49:14.020Z,1028.27
2018-07-02T04:50:14.025Z,1028.27
2018-07-02T04:51:14.083Z,1028.22
2018-07-02T04:52:14.035Z,1028.26
2018-07-02T04:53:14.045Z,1028.22
2018-07-02T04:54:14.047Z,1028.18
2018-07-02T04:55:14.054Z,1028.13
2018-07-02T04:56:14.059Z,1028.04
2018-07-02T04:57:14.066Z,1027.93
2018-07-02T04:58:14.071Z,1027.86
2018-07-02T04:59:14.077Z,1027.84
2018-07-02T05:00:14.084Z,1027.77
2018-07-02T05:01:14.094Z,1027.79
2018-07-02T05:02:14.099Z,1027.77
2018-07-02T05:03:14.104Z,1027.73
2018-07-02T05:04:14.111Z,1027.72
2018-07-02T05:05:14.118Z,1027.67
2018-07-02T05:06:14.125Z,1027.6
2018-07-02T05:07:14.132Z,1027.5
2018-07-02T05:08:14.139Z,1027.39
2018-07-02T05:09:14.147Z,1027.34
2018-07-02T05:10:14.155Z,1027.35
2018-07-02T05:11:14.163Z,1027.4
2018-07-02T05:12:14.172Z,1027.46
2018-07-02T05:13:14.177Z,1027.48
2018-07-02T05:14:14.186Z,1027.54
2018-07-02T05:15:14.194Z,1027.63
2018-07-02T05:16:14.201Z,1027.61
2018-07-02T05:17:14.214Z,1027.58
2018-07-02T05:18:14.223Z,1027.42
2018-07-02T05:19:14.226Z,1027.37
2018-07-02T05:20:14.234Z,1027.42
2018-07-02T05:21:14.242Z,1027.45
2018-07-02T05:22:14.449Z,1027.41
2018-07-02T05:23:14.260Z,1027.31
2018-07-02T05:24:14.268Z,1027.25
2018-07-02T05:25:14.277Z,1027.3
2018-07-02T05:26:14.286Z,1027.36
2018-07-02T05:27:14.294Z,1027.29
2018-07-02T05:28:14.303Z,1027.31
2018-07-02T05:29:14.312Z,1027.23
2018-07-02T05:30:14.322Z,1027.21
2018-07-02T05:31:14.330Z,1027.14
2018-07-02T05:32:14.345Z,1027.16
2018-07-02T05:33:14.349Z,1027.12
2018-07-02T05:34:14.358Z,1027.16
2018-07-02T05:35:14.366Z,1027.12
2018-07-02T05:36:14.377Z,1027.14
2018-07-02T05:37:14.386Z,1027.02
2018-07-02T05:38:14.394Z,1026.92
2018-07-02T05:39:14.404Z,1026.77
2018-07-02T05:40:14.414Z,1026.6
2018-07-02T05:41:14.424Z,1026.49
2018-07-02T05:42:14.433Z,1026.45
2018-07-02T05:43:14.445Z,1026.38
2018-07-02T05:44:14.454Z,1026.38
2018-07-02T05:45:14.464Z,1026.39
2018-07-02T05:46:14.473Z,1026.34
2018-07-02T05:47:14.484Z,1026.31
2018-07-02T05:48:14.497Z,1026.17
2018-07-02T05:49:14.515Z,1026.14
2018-07-02T05:50:14.515Z,1026.12
2018-07-02T05:51:14.527Z,1025.94
2018-07-02T05:52:14.536Z,1025.91
2018-07-02T05:53:14.547Z,1026
2018-07-02T05:54:14.558Z,1026.06
2018-07-02T05:55:14.570Z,1026.08
2018-07-02T05:56:14.581Z,1025.91
2018-07-02T05:57:14.591Z,1025.84
2018-07-02T05:58:14.608Z,1025.8
2018-07-02T05:59:14.614Z,1025.75
2018-07-02T06:00:14.745Z,1025.75
2018-07-02T06:01:14.638Z,1025.78
2018-07-02T06:02:14.650Z,1025.76
2018-07-02T06:03:14.738Z,1025.77
2018-07-02T06:04:14.670Z,1025.73
2018-07-02T06:05:14.683Z,1025.68
2018-07-02T06:06:14.695Z,1025.61
2018-07-02T06:07:14.707Z,1025.47
2018-07-02T06:08:14.719Z,1025.3
2018-07-02T06:09:14.730Z,1025.29
2018-07-02T06:10:14.744Z,1025.28
2018-07-02T06:11:14.755Z,1025.29
2018-07-02T06:12:14.771Z,1025.19
2018-07-02T06:13:14.783Z,1025.07
2018-07-02T06:14:14.793Z,1024.99
2018-07-02T06:15:14.810Z,1024.86
2018-07-02T06:16:14.817Z,1024.96
2018-07-02T06:17:14.831Z,1025.01
2018-07-02T06:18:14.845Z,1024.99
2018-07-02T06:19:14.855Z,1024.9
2018-07-02T06:20:14.870Z,1024.83
2018-07-02T06:21:14.880Z,1024.77
2018-07-02T06:22:14.891Z,1024.82
2018-07-02T06:23:14.915Z,1024.82
2018-07-02T06:24:14.921Z,1024.83
2018-07-02T06:25:14.937Z,1024.84
2018-07-02T06:26:14.944Z,1024.76
2018-07-02T06:27:14.961Z,1024.81
2018-07-02T06:28:14.970Z,1024.84
2018-07-02T06:29:14.983Z,1024.77
2018-07-02T06:30:14.997Z,1024.8
2018-07-02T06:31:15.010Z,1024.78
2018-07-02T06:32:15.051Z,1024.68
2018-07-02T06:33:15.036Z,1024.6
2018-07-02T06:34:15.049Z,1024.6
2018-07-02T06:35:15.061Z,1024.68
2018-07-02T06:36:15.073Z,1024.59
2018-07-02T06:37:15.085Z,1024.65
2018-07-02T06:38:15.098Z,1024.52
2018-07-02T06:39:15.112Z,1024.42
2018-07-02T06:40:15.123Z,1024.17
2018-07-02T06:41:15.136Z,1024.05
2018-07-02T06:42:15.153Z,1023.9
2018-07-02T06:43:15.162Z,1023.82
2018-07-02T06:44:15.175Z,1023.76
2018-07-02T06:45:15.191Z,1023.66
2018-07-02T06:46:15.204Z,1023.5
2018-07-02T06:47:15.216Z,1023.41
2018-07-02T06:48:15.228Z,1023.26
2018-07-02T06:49:15.242Z,1023.29
2018-07-02T06:50:15.260Z,1023.34
2018-07-02T06:51:15.273Z,1023.34
2018-07-02T06:52:15.286Z,1023.34
2018-07-02T06:53:15.298Z,1023.3
2018-07-02T06:54:15.313Z,1023.33
2018-07-02T06:55:15.327Z,1023.35
2018-07-02T06:56:15.342Z,1023.22
2018-07-02T06:57:15.357Z,1023.26
2018-07-02T06:58:15.372Z,1023.34
2018-07-02T06:59:15.386Z,1023.62
2018-07-02T07:00:15.401Z,1023.86
2018-07-02T07:01:15.427Z,1023.99
2018-07-02T07:02:15.430Z,1023.99
2018-07-02T07:03:15.446Z,1023.98
2018-07-02T07:04:15.464Z,1023.93
2018-07-02T07:05:15.476Z,1023.81
2018-07-02T07:06:15.491Z,1023.71
2018-07-02T07:07:15.514Z,1023.6
2018-07-02T07:08:15.519Z,1023.53
2018-07-02T07:09:15.547Z,1023.39
2018-07-02T07:10:15.550Z,1023.17
2018-07-02T07:11:15.564Z,1023.03
2018-07-02T07:12:15.579Z,1023.06
2018-07-02T07:13:15.594Z,1023.08
2018-07-02T07:14:15.608Z,1023.14
2018-07-02T07:15:15.624Z,1023.21
2018-07-02T07:16:15.640Z,1023.17
2018-07-02T07:17:15.658Z,1023.09
2018-07-02T07:18:15.670Z,1023.03
2018-07-02T07:19:15.685Z,1022.95
2018-07-02T07:20:15.704Z,1022.91
2018-07-02T07:21:15.717Z,1022.99
2018-07-02T07:22:15.733Z,1022.97
2018-07-02T07:23:15.749Z,1022.9
2018-07-02T07:24:15.764Z,1022.76
2018-07-02T07:25:15.781Z,1022.71
2018-07-02T07:26:15.797Z,1022.68
2018-07-02T07:27:15.814Z,1022.69
2018-07-02T07:28:15.830Z,1022.71
2018-07-02T07:29:15.862Z,1022.74
2018-07-02T07:30:15.869Z,1022.67
2018-07-02T07:31:15.938Z,1022.58
2018-07-02T07:32:15.897Z,1022.46
2018-07-02T07:33:15.914Z,1022.41
2018-07-02T07:34:15.931Z,1022.28
2018-07-02T07:35:15.948Z,1022.21
2018-07-02T07:36:15.966Z,1022.21
2018-07-02T07:37:15.983Z,1022.3
2018-07-02T07:38:16.000Z,1022.45
2018-07-02T07:39:16.018Z,1022.53
2018-07-02T07:40:16.036Z,1022.64
2018-07-02T07:41:16.054Z,1022.72
2018-07-02T07:42:16.072Z,1022.63
2018-07-02T07:43:16.089Z,1022.64
2018-07-02T07:44:16.108Z,1022.6
2018-07-02T07:45:16.125Z,1022.54
2018-07-02T07:46:16.143Z,1022.47
2018-07-02T07:47:16.161Z,1022.49
2018-07-02T07:48:16.179Z,1022.74
2018-07-02T07:49:16.197Z,1022.91
2018-07-02T07:50:16.214Z,1023.1
2018-07-02T07:51:16.233Z,1023.28
2018-07-02T07:52:16.253Z,1023.35
2018-07-02T07:53:16.331Z,1023.37
2018-07-02T07:54:16.286Z,1023.2
2018-07-02T07:55:16.305Z,1023.03
2018-07-02T07:56:16.323Z,1022.79
2018-07-02T07:57:16.341Z,1022.62
2018-07-02T07:58:16.361Z,1022.46
2018-07-02T07:59:16.376Z,1022.46
2018-07-02T08:00:16.394Z,1022.48
2018-07-02T08:01:16.411Z,1022.55
2018-07-02T08:02:16.430Z,1022.59
2018-07-02T08:03:16.447Z,1022.65
2018-07-02T08:04:16.469Z,1022.67
2018-07-02T08:05:16.514Z,1022.62
2018-07-02T08:06:16.503Z,1022.57
2018-07-02T08:07:16.522Z,1022.55
2018-07-02T08:08:16.538Z,1022.49
2018-07-02T08:09:16.558Z,1022.51
2018-07-02T08:10:16.575Z,1022.1
2018-07-02T08:11:16.595Z,1024.16
2018-07-02T08:12:16.611Z,1023.96
2018-07-02T08:13:16.629Z,1023.88
2018-07-02T08:14:16.647Z,1023.84
2018-07-02T08:15:16.665Z,1023.82
2018-07-02T08:16:16.683Z,1023.98
2018-07-02T08:17:16.700Z,1023.67
2018-07-02T08:18:16.718Z,1023.34
2018-07-02T08:19:16.792Z,1022.96
2018-07-02T08:20:16.755Z,1022.75
2018-07-02T08:21:16.774Z,1022.62
2018-07-02T08:22:16.789Z,1022.54
2018-07-02T08:23:16.807Z,1022.34
2018-07-02T08:24:16.824Z,1022.48
2018-07-02T08:25:16.845Z,1022.96
2018-07-02T08:26:16.860Z,1024.16
2018-07-02T08:27:16.908Z,1025.44
2018-07-02T08:28:16.894Z,1024.7
2018-07-02T08:29:16.924Z,1025.51
2018-07-02T08:30:16.926Z,1025.34
2018-07-02T08:31:16.945Z,1025.13
2018-07-02T08:32:16.968Z,1024.95
2018-07-02T08:33:17.083Z,1024.86
2018-07-02T08:34:16.988Z,1024.58
2018-07-02T08:35:17.005Z,1025.54
2018-07-02T08:36:17.019Z,1026.48
2018-07-02T08:37:17.035Z,1027.27
2018-07-02T08:39:17.464Z,1027.4
2018-07-02T08:40:17.071Z,1027.66
2018-07-02T08:41:17.083Z,1027.01
2018-07-02T08:42:17.093Z,1026.57
2018-07-02T08:43:17.106Z,1026.34
2018-07-02T08:44:17.117Z,1025.87
2018-07-02T08:45:29.859Z,1025.56
2018-07-02T08:46:17.140Z,1025.31
2018-07-02T08:47:17.151Z,1025.17
2018-07-02T08:48:17.161Z,1025.05
2018-07-02T08:49:17.172Z,1025.47
2018-07-02T08:50:17.183Z,1025.32
2018-07-02T08:51:17.198Z,1025.22
2018-07-02T08:52:17.205Z,1025.12
2018-07-02T08:53:17.218Z,1025.07
2018-07-02T08:54:17.228Z,1024.92
2018-07-02T08:55:17.240Z,1024.54
2018-07-02T08:56:17.251Z,1025.78
2018-07-02T08:57:17.259Z,1026.99
2018-07-02T08:58:17.347Z,1026.74
2018-07-02T08:59:17.281Z,1026.71
2018-07-02T09:00:17.292Z,1027.14
2018-07-02T09:01:17.302Z,1027.68
2018-07-02T09:02:17.317Z,1028.24
2018-07-02T09:03:17.320Z,1028.79
2018-07-02T09:04:17.329Z,1029.2
2018-07-02T09:05:17.340Z,1029.6
2018-07-02T09:06:17.349Z,1029.92
2018-07-02T09:07:17.357Z,1030.16
2018-07-02T09:08:17.380Z,1030.35
2018-07-02T09:09:17.375Z,1030.54
2018-07-02T09:10:17.380Z,1030.76
2018-07-02T09:11:17.392Z,1030.85
2018-07-02T09:12:17.394Z,1031.1
2018-07-02T09:13:17.410Z,1031.32
2018-07-02T09:14:17.408Z,1031.43
2018-07-02T09:15:17.415Z,1031.65
2018-07-02T09:16:17.418Z,1031.76
2018-07-02T09:17:17.433Z,1031.77
2018-07-02T09:18:17.446Z,1031.8
2018-07-02T09:19:17.444Z,1031.91
2018-07-02T09:20:17.451Z,1031.86
2018-07-02T09:21:17.461Z,1031.92
2018-07-02T09:22:17.447Z,1031.91
2018-07-02T09:23:17.445Z,1031.85
2018-07-02T09:24:17.448Z,1031.85
2018-07-02T09:25:17.449Z,1031.77
2018-07-02T09:26:17.455Z,1031.79
2018-07-02T09:27:17.461Z,1031.94
2018-07-02T09:28:17.461Z,1031.94
2018-07-02T09:29:17.456Z,1031.98
2018-07-02T09:30:17.466Z,1031.93
2018-07-02T09:31:17.474Z,1032.04
2018-07-02T09:32:17.488Z,1032.01
2018-07-02T09:33:17.466Z,1031.99
2018-07-02T09:34:17.461Z,1032.03
2018-07-02T09:35:17.472Z,1032.01
2018-07-02T09:36:17.462Z,1032.03
2018-07-02T09:37:17.480Z,1031.89
2018-07-02T09:38:17.464Z,1031.78
2018-07-02T09:39:17.474Z,1031.8
2018-07-02T09:40:17.466Z,1031.62
2018-07-02T09:41:17.475Z,1031.63
2018-07-02T09:42:17.467Z,1031.62
2018-07-02T09:43:17.466Z,1031.65
2018-07-02T09:44:17.473Z,1031.75
2018-07-02T09:45:17.468Z,1031.87
2018-07-02T09:46:17.469Z,1031.87
2018-07-02T09:47:17.467Z,1031.83
2018-07-02T09:48:17.489Z,1031.79
2018-07-02T09:49:17.468Z,1031.78
2018-07-02T09:50:17.468Z,1031.92
2018-07-02T09:51:17.469Z,1031.85
2018-07-02T09:52:17.519Z,1031.72
2018-07-02T09:53:17.468Z,1031.69
2018-07-02T09:54:17.467Z,1031.67
2018-07-02T09:55:17.468Z,1031.58
2018-07-02T09:56:17.557Z,1031.5
2018-07-02T09:57:17.468Z,1031.42
2018-07-02T09:58:17.467Z,1031.4
2018-07-02T09:59:17.468Z,1031.35
2018-07-02T10:00:17.468Z,1031.37
2018-07-02T10:01:17.474Z,1031.32
2018-07-02T10:02:17.474Z,1031.28
2018-07-02T10:03:17.470Z,1031.33
2018-07-02T10:04:17.468Z,1031.33
2018-07-02T10:05:17.467Z,1031.29
2018-07-02T10:06:17.510Z,1031.3
2018-07-02T10:07:17.468Z,1031.32
2018-07-02T10:08:17.468Z,1031.3
2018-07-02T10:09:17.468Z,1031.32
2018-07-02T10:10:17.491Z,1031.2
2018-07-02T10:11:17.484Z,1031.17
2018-07-02T10:12:17.468Z,1031.09
2018-07-02T10:13:17.468Z,1031.02
2018-07-02T10:14:17.469Z,1031.04
2018-07-02T10:15:17.474Z,1031.08
2018-07-02T10:16:17.470Z,1031
2018-07-02T10:17:17.470Z,1031.08
2018-07-02T10:18:17.469Z,1031.12
2018-07-02T10:19:17.472Z,1030.92
2018-07-02T10:20:17.481Z,1030.83
2018-07-02T10:21:17.477Z,1030.68
2018-07-02T10:22:17.482Z,1030.49
2018-07-02T10:23:17.472Z,1030.29
2018-07-02T10:24:17.477Z,1030.12
2018-07-02T10:25:17.476Z,1030.15
2018-07-02T10:26:17.478Z,1030.21
2018-07-02T10:27:17.483Z,1030.28
2018-07-02T10:28:17.477Z,1030.42
2018-07-02T10:29:17.485Z,1030.56
2018-07-02T10:30:17.480Z,1030.64
2018-07-02T10:31:17.543Z,1030.67
2018-07-02T10:32:17.482Z,1030.75
2018-07-02T10:33:17.483Z,1030.85
2018-07-02T10:34:17.484Z,1030.88
2018-07-02T10:35:17.496Z,1030.89
2018-07-02T10:36:17.486Z,1030.93
2018-07-02T10:37:17.493Z,1030.79
2018-07-02T10:38:17.489Z,1030.72
2018-07-02T10:39:17.497Z,1030.63
2018-07-02T10:40:17.502Z,1030.56
2018-07-02T10:41:17.495Z,1030.54
2018-07-02T10:42:17.493Z,1030.55
2018-07-02T10:43:17.496Z,1030.55
2018-07-02T10:44:17.497Z,1030.48
2018-07-02T10:45:17.509Z,1030.42
2018-07-02T10:46:17.499Z,1030.36
2018-07-02T10:47:17.500Z,1030.31
2018-07-02T10:48:17.543Z,1030.28
2018-07-02T10:49:17.502Z,1030.29
2018-07-02T10:50:17.553Z,1030.22
2018-07-02T10:51:17.506Z,1030.11
2018-07-02T10:52:17.527Z,1030.06
2018-07-02T10:53:17.511Z,1029.98
2018-07-02T10:54:17.511Z,1029.92
2018-07-02T10:55:17.527Z,1029.82
2018-07-02T10:56:17.530Z,1029.63
2018-07-02T10:57:17.536Z,1029.43
2018-07-02T10:58:17.530Z,1029.24
2018-07-02T10:59:17.539Z,1029.17
2018-07-02T11:00:17.521Z,1029.05
2018-07-02T11:01:17.528Z,1028.9
2018-07-02T11:02:17.525Z,1028.86
2018-07-02T11:03:17.528Z,1028.8
2018-07-02T11:04:17.530Z,1028.71
2018-07-02T11:05:17.533Z,1028.74
2018-07-02T11:06:17.536Z,1028.76
2018-07-02T11:07:17.538Z,1028.76
2018-07-02T11:08:17.541Z,1028.89
2018-07-02T11:09:17.546Z,1028.97
2018-07-02T11:10:17.549Z,1029.08
2018-07-02T11:11:17.601Z,1029.27
2018-07-02T11:12:17.555Z,1029.37
2018-07-02T11:13:17.558Z,1029.53
2018-07-02T11:14:17.561Z,1029.71
2018-07-02T11:15:17.564Z,1029.88
2018-07-02T11:16:17.569Z,1030.06
2018-07-02T11:17:17.574Z,1030.16
2018-07-02T11:18:17.588Z,1030.18
2018-07-02T11:19:17.596Z,1030.21
2018-07-02T11:20:17.590Z,1030.13
2018-07-02T11:21:17.594Z,1030.03
2018-07-02T11:22:17.588Z,1029.92
2018-07-02T11:23:17.604Z,1029.83
2018-07-02T11:24:17.603Z,1029.76
2018-07-02T11:25:17.591Z,1029.58
2018-07-02T11:26:17.617Z,1029.43
2018-07-02T11:27:17.597Z,1029.38
2018-07-02T11:28:17.604Z,1029.13
2018-07-02T11:29:17.602Z,1028.99
2018-07-02T11:30:17.610Z,1028.95
2018-07-02T11:31:17.607Z,1028.9
2018-07-02T11:32:17.641Z,1028.93
2018-07-02T11:33:17.614Z,1028.65
2018-07-02T11:34:17.616Z,1028.74
2018-07-02T11:35:17.620Z,1028.77
2018-07-02T11:36:17.622Z,1028.83
2018-07-02T11:37:17.624Z,1028.71
2018-07-02T11:38:17.643Z,1028.79
2018-07-02T11:39:17.636Z,1028.86
2018-07-02T11:40:17.633Z,1028.92
2018-07-02T11:41:17.640Z,1028.96
2018-07-02T11:42:17.640Z,1029.06
2018-07-02T11:43:17.644Z,1029.21
2018-07-02T11:44:17.650Z,1029.39
2018-07-02T11:45:17.649Z,1029.48
2018-07-02T11:46:17.655Z,1029.58
2018-07-02T11:47:17.655Z,1029.65
2018-07-02T11:48:17.661Z,1029.81
2018-07-02T11:49:17.662Z,1029.94
2018-07-02T11:50:17.664Z,1030.02
2018-07-02T11:51:17.666Z,1030.06
2018-07-02T11:52:17.668Z,1030.19
2018-07-02T11:53:17.671Z,1030.19
2018-07-02T11:54:17.673Z,1030.17
2018-07-02T11:55:17.675Z,1030.26
2018-07-02T11:56:17.676Z,1030.29
2018-07-02T11:57:17.679Z,1030.25
2018-07-02T11:58:17.682Z,1030.19
2018-07-02T11:59:17.682Z,1030.11
2018-07-02T12:00:17.688Z,1029.99
2018-07-02T12:01:17.687Z,1029.86
2018-07-02T12:02:17.694Z,1029.66
2018-07-02T12:03:17.689Z,1029.51
2018-07-02T12:04:17.742Z,1029.47
2018-07-02T12:05:17.693Z,1029.43
2018-07-02T12:06:17.694Z,1029.33
2018-07-02T12:07:17.696Z,1029.24
2018-07-02T12:08:17.703Z,1029.16
2018-07-02T12:09:17.706Z,1029.06